メインページ
METAR-TAF:

METAR-TAF

空港 :

館山航空基地

館山, 日本

緯度: 34-59N, 経度: 139-50E, 海抜: 3m

現時点の気象観測

当レポートは10時間26分前の22:07(UTC)に作成
北/北東の風 16kt、最大27ktの突風を伴う
気温 8°C
湿度 46%
気圧 1019 hPa
視程10km以上
高度2000ftの雲はほとんどない
高度5000ftの千切れ雲あり

METAR: RJTE 122207Z 02016G27KT 9999 FEW020 BKN050 08/M03 Q1019 RMK 1CU020 5SC050 A3012

時間: 17:33 (08:33 UTC)


TAF: 見つかりません

4,000以上の空港の気象観測と天気予報(METAR報とTAF報)

利用可能な観測所は地図上に黄色い丸と赤い丸で示す。

丸の上にカーソルを重ねると観測所名を参照できる。

次にクリックすると気象観測と天気予報を参照できる。

マップの切り替え:黒色「×」印の緑ボタンをクリックして拡大、「-」印の緑ボタンをクリックして縮小、緑色の三角印をクリックして隣りの地図に切り替え


METAR-TAF: